createdAt,value
2022-09-26T00:01:34.550Z,17.07
2022-09-26T00:04:25.258Z,15.87
2022-09-26T00:06:55.950Z,26.03
2022-09-26T00:09:25.781Z,18.40
2022-09-26T00:11:53.907Z,27.03
2022-09-26T00:14:24.269Z,28.87
2022-09-26T00:16:52.011Z,28.77
2022-09-26T00:19:20.255Z,19.03
2022-09-26T00:21:48.171Z,18.67
2022-09-26T00:24:16.144Z,17.97
2022-09-26T00:26:43.433Z,17.53
2022-09-26T00:29:13.002Z,16.03
2022-09-26T00:31:44.606Z,19.40
2022-09-26T00:34:14.517Z,20.57
2022-09-26T00:36:41.767Z,21.57
2022-09-26T00:39:11.097Z,21.77
2022-09-26T00:41:39.055Z,23.73
2022-09-26T00:44:35.624Z,18.43
2022-09-26T00:47:04.551Z,18.40
2022-09-26T00:49:42.310Z,16.70
2022-09-26T00:52:15.281Z,17.40
2022-09-26T00:54:48.331Z,16.07
2022-09-26T00:57:24.061Z,16.57
2022-09-26T00:59:55.848Z,21.10
2022-09-26T01:02:26.324Z,28.93
2022-09-26T01:04:55.146Z,29.33
2022-09-26T01:07:25.839Z,27.63
2022-09-26T01:09:53.583Z,23.13
2022-09-26T01:12:21.660Z,23.30
2022-09-26T01:14:54.361Z,30.63
2022-09-26T01:17:23.486Z,55.63
2022-09-26T01:20:02.972Z,31.10
2022-09-26T01:22:47.745Z,22.40
2022-09-26T01:25:38.011Z,25.60
2022-09-26T01:28:24.494Z,22.40
2022-09-26T01:31:15.463Z,29.80
2022-09-26T01:33:53.729Z,25.73
2022-09-26T01:36:39.954Z,24.80
2022-09-26T01:39:34.464Z,17.93
2022-09-26T01:42:12.029Z,19.53
2022-09-26T01:44:50.764Z,19.40
2022-09-26T01:47:20.460Z,13.63
2022-09-26T01:49:53.763Z,19.40
2022-09-26T01:52:24.022Z,15.47
2022-09-26T01:55:07.158Z,14.37
2022-09-26T01:57:45.369Z,14.27
2022-09-26T02:00:13.676Z,13.20
2022-09-26T02:02:47.711Z,13.07
2022-09-26T02:05:33.144Z,16.27
2022-09-26T02:08:11.609Z,19.80
2022-09-26T02:10:51.593Z,21.27
2022-09-26T02:13:24.030Z,19.97
2022-09-26T02:15:56.637Z,21.23
2022-09-26T02:18:48.375Z,27.77
2022-09-26T02:21:20.815Z,42.53
2022-09-26T02:23:53.112Z,34.07
2022-09-26T02:26:20.891Z,37.93
2022-09-26T02:28:48.604Z,39.83
2022-09-26T02:31:21.489Z,34.30
2022-09-26T02:33:53.808Z,21.47
2022-09-26T02:36:22.582Z,17.13
2022-09-26T02:38:50.081Z,20.97
2022-09-26T02:41:33.918Z,21.63
2022-09-26T02:44:15.583Z,22.07
2022-09-26T02:47:04.679Z,22.47
2022-09-26T02:49:47.534Z,17.97
2022-09-26T02:52:28.232Z,17.20
2022-09-26T02:55:04.533Z,15.10
2022-09-26T02:57:34.604Z,16.73
2022-09-26T03:00:17.944Z,22.50
2022-09-26T03:03:13.327Z,17.00
2022-09-26T03:05:44.716Z,21.00
2022-09-26T03:08:19.542Z,21.40
2022-09-26T03:10:49.825Z,27.17
2022-09-26T03:13:19.028Z,22.00
2022-09-26T03:15:52.313Z,15.80
2022-09-26T03:18:28.617Z,15.07
2022-09-26T03:20:56.053Z,15.73
2022-09-26T03:23:28.091Z,15.27
2022-09-26T03:26:11.360Z,19.50
2022-09-26T03:28:38.977Z,17.87
2022-09-26T03:31:07.574Z,24.33
2022-09-26T03:33:35.462Z,21.37
2022-09-26T03:36:09.304Z,19.50
2022-09-26T03:38:36.731Z,17.87
2022-09-26T03:41:04.408Z,17.27
2022-09-26T03:43:31.937Z,16.50
2022-09-26T03:46:06.970Z,16.37
2022-09-26T03:48:35.117Z,15.80
2022-09-26T03:51:04.805Z,18.17
2022-09-26T03:53:37.654Z,21.13
2022-09-26T03:56:11.128Z,20.13
2022-09-26T03:58:40.424Z,19.70
2022-09-26T04:01:20.128Z,19.03
2022-09-26T04:03:50.811Z,18.77
2022-09-26T04:06:21.043Z,18.83
2022-09-26T04:08:51.394Z,20.60
2022-09-26T04:11:23.503Z,19.07
2022-09-26T04:13:53.576Z,18.40
2022-09-26T04:16:24.488Z,20.50
2022-09-26T04:18:59.121Z,17.70
2022-09-26T04:21:30.040Z,23.37
2022-09-26T04:23:57.730Z,19.47
2022-09-26T04:26:25.036Z,18.97
2022-09-26T04:28:55.311Z,19.70
2022-09-26T04:31:24.668Z,17.63
2022-09-26T04:33:52.330Z,17.90
2022-09-26T04:36:19.700Z,19.07
2022-09-26T04:38:47.301Z,17.00
2022-09-26T04:41:17.701Z,15.87
2022-09-26T04:43:45.905Z,16.60
2022-09-26T04:46:20.802Z,17.00
2022-09-26T04:48:54.308Z,16.87
2022-09-26T04:51:24.207Z,16.67
2022-09-26T04:53:52.745Z,16.53
2022-09-26T04:56:25.443Z,15.07
2022-09-26T04:58:56.512Z,16.57
2022-09-26T05:01:25.785Z,15.67
2022-09-26T05:03:55.408Z,16.20
2022-09-26T05:06:22.994Z,16.00
2022-09-26T05:08:51.237Z,17.47
2022-09-26T05:11:20.087Z,16.07
2022-09-26T05:13:53.169Z,15.70
2022-09-26T05:16:21.354Z,16.53
2022-09-26T05:18:52.619Z,15.87
2022-09-26T05:21:20.222Z,21.13
2022-09-26T05:24:06.180Z,21.87
2022-09-26T05:26:47.511Z,18.07
2022-09-26T05:29:15.341Z,18.33
2022-09-26T05:31:43.738Z,20.40
2022-09-26T05:34:17.091Z,17.87
2022-09-26T05:36:46.713Z,17.10
2022-09-26T05:39:32.518Z,25.27
2022-09-26T05:42:00.364Z,19.70
2022-09-26T05:44:28.608Z,20.50
2022-09-26T05:46:57.174Z,18.40
2022-09-26T05:49:25.405Z,23.70
2022-09-26T05:51:53.992Z,21.77
2022-09-26T05:54:23.604Z,25.60
2022-09-26T05:56:51.005Z,29.83
2022-09-26T05:59:19.428Z,31.67
2022-09-26T06:01:47.487Z,33.67
2022-09-26T06:04:14.856Z,48.07
2022-09-26T06:06:44.469Z,34.47
2022-09-26T06:09:12.056Z,37.23
2022-09-26T06:11:39.370Z,29.27
2022-09-26T06:14:08.525Z,44.60
2022-09-26T06:16:35.903Z,31.20
2022-09-26T06:19:03.390Z,26.07
2022-09-26T06:21:30.860Z,20.93
2022-09-26T06:23:58.203Z,21.53
2022-09-26T06:26:29.243Z,24.90
2022-09-26T06:28:58.411Z,29.73
2022-09-26T06:31:26.660Z,22.50
2022-09-26T06:33:54.592Z,17.30
2022-09-26T06:36:23.668Z,17.20
2022-09-26T06:38:51.754Z,18.53
2022-09-26T06:41:19.764Z,17.83
2022-09-26T06:43:47.896Z,18.73
2022-09-26T06:46:16.428Z,20.00
2022-09-26T06:48:44.284Z,19.10
2022-09-26T06:51:14.103Z,20.97
2022-09-26T06:53:42.861Z,26.03
2022-09-26T06:56:10.314Z,19.70
2022-09-26T06:58:38.331Z,19.40
2022-09-26T07:01:09.256Z,21.03
2022-09-26T07:03:39.516Z,21.90
2022-09-26T07:06:10.349Z,23.43
2022-09-26T07:09:01.103Z,23.23
2022-09-26T07:12:10.030Z,20.30
2022-09-26T07:14:17.188Z,28.07
2022-09-26T07:16:45.593Z,31.00
2022-09-26T07:19:13.256Z,37.23
2022-09-26T07:21:40.662Z,37.87
2022-09-26T07:24:08.929Z,30.60
2022-09-26T07:26:36.449Z,30.90
2022-09-26T07:29:05.518Z,28.03
2022-09-26T07:31:32.970Z,28.00
2022-09-26T07:34:00.678Z,28.87
2022-09-26T07:36:28.347Z,23.40
2022-09-26T07:38:55.780Z,29.33
2022-09-26T07:41:23.600Z,27.17
2022-09-26T07:44:46.229Z,28.63
2022-09-26T07:46:57.396Z,22.37
2022-09-26T07:49:43.343Z,24.13
2022-09-26T07:52:11.400Z,21.53
2022-09-26T07:54:38.853Z,25.63
2022-09-26T07:57:06.415Z,18.00
2022-09-26T07:59:37.036Z,21.20
2022-09-26T08:02:04.674Z,21.07
2022-09-26T08:04:32.009Z,18.83
2022-09-26T08:07:00.250Z,29.73
2022-09-26T08:09:28.813Z,31.53
2022-09-26T08:11:56.572Z,26.43
2022-09-26T08:14:23.830Z,20.30
2022-09-26T08:16:57.213Z,28.53
2022-09-26T08:19:24.740Z,22.57
2022-09-26T08:21:52.102Z,16.73
2022-09-26T08:24:19.406Z,26.50
2022-09-26T08:26:46.750Z,22.80
2022-09-26T08:29:14.321Z,20.40
2022-09-26T08:31:42.194Z,17.80
2022-09-26T08:34:09.860Z,17.83
2022-09-26T08:36:37.506Z,21.00
2022-09-26T08:39:05.542Z,14.60
2022-09-26T08:41:59.875Z,14.03
2022-09-26T08:44:39.731Z,17.27
2022-09-26T08:47:39.119Z,14.77
2022-09-26T08:50:47.551Z,13.53
2022-09-26T08:53:20.819Z,12.53
2022-09-26T08:55:50.312Z,8.90
2022-09-26T08:58:21.707Z,10.60
2022-09-26T09:00:58.176Z,9.73
2022-09-26T09:03:28.629Z,11.77
2022-09-26T09:06:11.655Z,13.17
2022-09-26T09:08:49.233Z,8.50
2022-09-26T09:11:25.466Z,7.70
2022-09-26T09:14:30.823Z,9.33
2022-09-26T09:17:16.843Z,7.43
2022-09-26T09:19:54.713Z,8.57
2022-09-26T09:23:03.698Z,6.37
2022-09-26T09:25:48.742Z,18.73
2022-09-26T09:29:00.808Z,14.43
2022-09-26T09:31:32.677Z,10.23
2022-09-26T09:34:06.074Z,6.73
2022-09-26T09:36:41.042Z,13.77
2022-09-26T09:39:13.034Z,6.20
2022-09-26T09:41:48.768Z,6.57
2022-09-26T09:44:43.123Z,5.10
2022-09-26T09:47:16.275Z,5.73
2022-09-26T09:49:47.091Z,5.70
2022-09-26T09:52:36.043Z,7.17
2022-09-26T09:55:32.354Z,7.37
2022-09-26T09:58:32.852Z,6.07
2022-09-26T10:01:10.076Z,5.07
2022-09-26T10:03:50.417Z,6.43
2022-09-26T10:06:45.520Z,5.63
2022-09-26T10:09:38.873Z,6.03
2022-09-26T10:12:21.952Z,4.70
2022-09-26T10:15:00.413Z,6.23
2022-09-26T10:17:28.981Z,4.97
2022-09-26T10:19:56.814Z,4.50
2022-09-26T10:22:45.269Z,6.60
2022-09-26T10:25:22.969Z,5.67
2022-09-26T10:27:55.463Z,4.70
2022-09-26T10:30:32.241Z,3.97
2022-09-26T10:33:05.589Z,4.83
2022-09-26T10:35:47.091Z,4.00
2022-09-26T10:38:28.116Z,4.73
2022-09-26T10:41:02.124Z,4.17
2022-09-26T10:43:38.223Z,5.57
2022-09-26T10:46:13.256Z,5.63
2022-09-26T10:49:13.661Z,5.50
2022-09-26T10:51:46.003Z,4.67
2022-09-26T10:54:19.030Z,4.60
2022-09-26T10:56:57.599Z,5.13
2022-09-26T10:59:29.314Z,5.17
2022-09-26T11:01:59.445Z,4.67
2022-09-26T11:04:53.317Z,5.07
2022-09-26T11:07:29.629Z,5.57
2022-09-26T11:10:06.834Z,6.90
2022-09-26T11:12:41.801Z,5.50
2022-09-26T11:15:15.953Z,5.50
2022-09-26T11:17:47.986Z,4.60
2022-09-26T11:20:49.590Z,5.47
2022-09-26T11:23:36.103Z,4.97
2022-09-26T11:26:13.021Z,6.77
2022-09-26T11:28:47.183Z,9.10
2022-09-26T11:31:27.126Z,6.40
2022-09-26T11:33:56.062Z,6.07
2022-09-26T11:36:29.872Z,5.77
2022-09-26T11:38:58.580Z,5.73
2022-09-26T11:41:47.121Z,5.70
2022-09-26T11:44:38.810Z,5.67
2022-09-26T11:47:25.000Z,6.47
2022-09-26T11:50:27.971Z,7.90
2022-09-26T11:53:19.863Z,6.80
2022-09-26T11:56:23.352Z,7.23
2022-09-26T11:59:25.757Z,7.60
2022-09-26T12:02:16.014Z,8.53
2022-09-26T12:04:52.270Z,7.80
2022-09-26T12:07:40.052Z,9.73
2022-09-26T12:10:27.130Z,8.10
2022-09-26T12:13:18.378Z,6.83
2022-09-26T12:16:25.326Z,8.63
2022-09-26T12:19:16.297Z,7.33
2022-09-26T12:22:30.933Z,8.57
2022-09-26T12:25:01.606Z,8.30
2022-09-26T12:27:44.795Z,8.60
2022-09-26T12:30:20.605Z,10.00
2022-09-26T12:33:06.413Z,11.17
2022-09-26T12:35:56.831Z,10.93
2022-09-26T12:38:58.797Z,11.67
2022-09-26T12:41:53.079Z,10.10
2022-09-26T12:44:40.921Z,10.60
2022-09-26T12:47:14.167Z,10.97
2022-09-26T12:49:52.019Z,11.63
2022-09-26T12:52:36.426Z,12.93
2022-09-26T12:55:14.671Z,10.87
2022-09-26T12:57:47.116Z,9.47
2022-09-26T13:00:21.061Z,9.43
2022-09-26T13:03:10.117Z,8.73
2022-09-26T13:06:13.544Z,7.47
2022-09-26T13:08:47.233Z,6.77
2022-09-26T13:11:48.473Z,7.70
2022-09-26T13:14:28.037Z,7.10
2022-09-26T13:17:23.545Z,8.33
2022-09-26T13:19:59.982Z,11.00
2022-09-26T13:22:43.155Z,11.30
2022-09-26T13:25:20.245Z,11.20
2022-09-26T13:27:56.621Z,10.33
2022-09-26T13:30:35.910Z,11.50
2022-09-26T13:33:27.999Z,11.57
2022-09-26T13:36:00.089Z,10.90
2022-09-26T13:38:51.867Z,11.60
2022-09-26T13:41:35.940Z,15.00
2022-09-26T13:44:18.125Z,10.77
2022-09-26T13:47:06.498Z,11.00
2022-09-26T13:49:56.465Z,10.03
2022-09-26T13:52:53.179Z,10.77
2022-09-26T13:55:22.293Z,21.37
2022-09-26T13:58:11.155Z,15.60
2022-09-26T14:00:41.379Z,16.50
2022-09-26T14:03:17.856Z,13.20
2022-09-26T14:05:46.011Z,10.70
2022-09-26T14:08:43.874Z,12.17
2022-09-26T14:11:43.197Z,9.27
2022-09-26T14:14:19.709Z,10.10
2022-09-26T14:17:00.449Z,9.73
2022-09-26T14:19:47.121Z,8.20
2022-09-26T14:22:22.835Z,9.00
2022-09-26T14:24:54.131Z,9.00
2022-09-26T14:27:21.442Z,8.83
2022-09-26T14:29:53.406Z,9.73
2022-09-26T14:32:27.017Z,10.37
2022-09-26T14:34:57.753Z,11.63
2022-09-26T14:37:25.020Z,10.13
2022-09-26T14:40:17.503Z,11.77
2022-09-26T14:42:54.210Z,8.97
2022-09-26T14:45:29.271Z,9.57
2022-09-26T14:48:05.528Z,8.53
2022-09-26T14:50:42.172Z,8.43
2022-09-26T14:53:40.248Z,8.67
2022-09-26T14:56:18.801Z,9.27
2022-09-26T14:58:50.265Z,9.77
2022-09-26T15:01:26.228Z,11.70
2022-09-26T15:04:17.900Z,12.00
2022-09-26T15:07:02.118Z,9.53
2022-09-26T15:09:49.327Z,7.00
2022-09-26T15:12:31.104Z,7.27
2022-09-26T15:15:19.543Z,7.13
2022-09-26T15:17:53.152Z,7.70
2022-09-26T15:20:22.963Z,7.97
2022-09-26T15:22:50.615Z,8.17
2022-09-26T15:25:31.384Z,8.17
2022-09-26T15:27:59.835Z,7.43
2022-09-26T15:30:37.929Z,8.43
2022-09-26T15:33:07.659Z,7.50
2022-09-26T15:35:35.627Z,7.33
2022-09-26T15:38:12.648Z,7.03
2022-09-26T15:40:40.253Z,7.50
2022-09-26T15:43:12.584Z,7.90
2022-09-26T15:45:50.429Z,8.00
2022-09-26T15:48:20.531Z,14.87
2022-09-26T15:51:21.842Z,8.60
2022-09-26T15:54:06.763Z,9.03
2022-09-26T15:56:46.572Z,8.73
2022-09-26T15:59:19.658Z,9.47
2022-09-26T16:01:52.768Z,11.33
2022-09-26T16:04:28.675Z,10.40
2022-09-26T16:07:01.236Z,12.20
2022-09-26T16:09:36.054Z,14.07
2022-09-26T16:12:17.723Z,13.20
2022-09-26T16:14:49.849Z,15.30
2022-09-26T16:17:36.980Z,12.47
2022-09-26T16:20:11.313Z,13.10
2022-09-26T16:22:42.163Z,18.13
2022-09-26T16:25:19.014Z,16.77
2022-09-26T16:28:21.181Z,16.27
2022-09-26T16:30:59.182Z,21.07
2022-09-26T16:33:35.077Z,17.00
2022-09-26T16:36:24.890Z,15.53
2022-09-26T16:39:04.292Z,12.30
2022-09-26T16:42:00.080Z,13.73
2022-09-26T16:44:33.591Z,10.63
2022-09-26T16:47:04.070Z,10.77
2022-09-26T16:49:34.627Z,16.50
2022-09-26T16:52:28.052Z,19.00
2022-09-26T16:54:57.681Z,22.37
2022-09-26T16:57:34.592Z,19.47
2022-09-26T17:00:37.677Z,21.03
2022-09-26T17:03:27.291Z,23.87
2022-09-26T17:05:56.605Z,27.63
2022-09-26T17:08:25.589Z,21.20
2022-09-26T17:11:00.749Z,21.47
2022-09-26T17:13:31.324Z,25.13
2022-09-26T17:16:03.852Z,33.80
2022-09-26T17:18:33.584Z,30.03
2022-09-26T17:21:01.795Z,40.53
2022-09-26T17:23:45.832Z,36.43
2022-09-26T17:26:20.013Z,17.57
2022-09-26T17:28:47.793Z,13.17
2022-09-26T17:31:20.980Z,11.63
2022-09-26T17:33:53.087Z,8.90
2022-09-26T17:36:26.513Z,73.00
2022-09-26T17:38:54.980Z,27.37
2022-09-26T17:41:23.417Z,34.90
2022-09-26T17:43:58.640Z,53.90
2022-09-26T17:46:26.346Z,68.30
2022-09-26T17:48:55.407Z,85.60
2022-09-26T17:51:24.249Z,133.47
2022-09-26T17:53:52.889Z,99.80
2022-09-26T17:56:20.969Z,74.10
2022-09-26T17:58:49.848Z,35.27
2022-09-26T18:01:35.737Z,96.27
2022-09-26T18:04:06.685Z,113.80
2022-09-26T18:06:34.309Z,66.97
2022-09-26T18:09:07.802Z,37.53
2022-09-26T18:11:36.525Z,36.57
2022-09-26T18:14:06.441Z,39.67
2022-09-26T18:16:33.932Z,40.97
2022-09-26T18:19:06.800Z,35.70
2022-09-26T18:21:35.593Z,48.03
2022-09-26T18:24:07.121Z,73.63
2022-09-26T18:26:44.839Z,50.13
2022-09-26T18:29:15.619Z,40.97
2022-09-26T18:31:46.024Z,42.33
2022-09-26T18:34:16.960Z,59.40
2022-09-26T18:36:45.167Z,124.50
2022-09-26T18:39:13.065Z,146.33
2022-09-26T18:41:41.084Z,146.13
2022-09-26T18:44:17.910Z,163.20
2022-09-26T18:46:47.385Z,103.17
2022-09-26T18:49:15.857Z,41.73
2022-09-26T18:51:43.666Z,37.50
2022-09-26T18:54:14.282Z,36.57
2022-09-26T18:57:01.254Z,35.03
2022-09-26T18:59:31.379Z,18.07
2022-09-26T19:02:01.614Z,24.00
2022-09-26T19:04:31.143Z,25.33
2022-09-26T19:07:02.430Z,40.30
2022-09-26T19:09:33.519Z,44.93
2022-09-26T19:12:01.765Z,114.97
2022-09-26T19:14:30.992Z,157.40
2022-09-26T19:16:59.023Z,178.30
2022-09-26T19:19:29.170Z,145.30
2022-09-26T19:22:02.567Z,86.33
2022-09-26T19:24:35.124Z,81.67
2022-09-26T19:27:19.443Z,78.77
2022-09-26T19:30:00.691Z,91.13
2022-09-26T19:32:40.225Z,87.73
2022-09-26T19:35:26.044Z,87.00
2022-09-26T19:37:53.793Z,73.70
2022-09-26T19:40:22.697Z,57.23
2022-09-26T19:42:50.760Z,53.83
2022-09-26T19:45:19.251Z,46.57
2022-09-26T19:47:50.177Z,45.43
2022-09-26T19:50:23.463Z,64.30
2022-09-26T19:52:52.982Z,107.27
2022-09-26T19:55:25.545Z,111.23
2022-09-26T19:58:17.582Z,103.03
2022-09-26T20:00:48.439Z,108.60
2022-09-26T20:03:21.013Z,113.97
2022-09-26T20:05:52.499Z,85.90
2022-09-26T20:08:22.600Z,40.97
2022-09-26T20:10:50.725Z,42.10
2022-09-26T20:13:18.930Z,42.37
2022-09-26T20:15:47.195Z,44.50
2022-09-26T20:18:22.154Z,42.50
2022-09-26T20:20:54.331Z,166.37
2022-09-26T20:23:24.734Z,106.80
2022-09-26T20:25:54.941Z,110.83
2022-09-26T20:28:22.707Z,98.20
2022-09-26T20:30:53.014Z,70.57
2022-09-26T20:33:22.604Z,76.60
2022-09-26T20:36:01.676Z,48.53
2022-09-26T20:38:47.543Z,33.70
2022-09-26T20:41:34.418Z,28.83
2022-09-26T20:44:23.949Z,30.33
2022-09-26T20:46:54.236Z,28.23
2022-09-26T20:49:41.808Z,30.40
2022-09-26T20:52:20.930Z,31.50
2022-09-26T20:54:48.338Z,87.57
2022-09-26T20:57:20.021Z,54.00
2022-09-26T20:59:47.571Z,46.07
2022-09-26T21:02:25.610Z,38.40
2022-09-26T21:04:54.070Z,52.90
2022-09-26T21:07:22.641Z,75.17
2022-09-26T21:09:50.621Z,81.47
2022-09-26T21:12:18.804Z,70.27
2022-09-26T21:14:46.634Z,71.20
2022-09-26T21:17:29.254Z,55.23
2022-09-26T21:19:56.805Z,52.87
2022-09-26T21:22:27.348Z,43.00
2022-09-26T21:24:55.684Z,52.80
2022-09-26T21:27:23.769Z,37.33
2022-09-26T21:29:51.062Z,33.90
2022-09-26T21:32:23.949Z,31.57
2022-09-26T21:35:04.424Z,30.17
2022-09-26T21:37:32.248Z,34.33
2022-09-26T21:39:59.625Z,32.47
2022-09-26T21:42:27.572Z,33.97
2022-09-26T21:45:01.088Z,38.10
2022-09-26T21:47:29.031Z,33.27
2022-09-26T21:49:56.350Z,30.80
2022-09-26T21:52:34.365Z,33.53
2022-09-26T21:55:02.595Z,30.80
2022-09-26T21:57:37.937Z,32.73
2022-09-26T22:00:09.808Z,31.67
2022-09-26T22:02:39.087Z,32.07
2022-09-26T22:05:06.756Z,30.80
2022-09-26T22:07:34.210Z,27.33
2022-09-26T22:10:01.646Z,28.97
2022-09-26T22:12:29.037Z,28.50
2022-09-26T22:14:56.262Z,29.90
2022-09-26T22:17:23.767Z,32.43
2022-09-26T22:19:52.173Z,29.10
2022-09-26T22:22:20.237Z,27.20
2022-09-26T22:24:48.197Z,29.17
2022-09-26T22:27:15.614Z,25.80
2022-09-26T22:29:43.483Z,25.87
2022-09-26T22:32:11.162Z,29.20
2022-09-26T22:34:38.492Z,30.77
2022-09-26T22:37:05.924Z,31.50
2022-09-26T22:39:33.315Z,30.77
2022-09-26T22:42:00.946Z,28.50
2022-09-26T22:44:28.252Z,30.23
2022-09-26T22:46:55.499Z,32.47
2022-09-26T22:49:23.295Z,30.03
2022-09-26T22:51:50.673Z,40.30
2022-09-26T22:54:18.238Z,37.60
2022-09-26T22:56:45.551Z,29.50
2022-09-26T22:59:12.906Z,34.47
2022-09-26T23:01:40.518Z,32.87
2022-09-26T23:04:08.064Z,31.20
2022-09-26T23:06:35.381Z,29.87
2022-09-26T23:09:02.982Z,27.20
2022-09-26T23:11:32.168Z,28.17
2022-09-26T23:13:59.657Z,27.57
2022-09-26T23:16:29.682Z,26.00
2022-09-26T23:18:58.737Z,25.10
2022-09-26T23:21:27.818Z,23.63
2022-09-26T23:23:57.718Z,31.83
2022-09-26T23:26:32.017Z,28.63
2022-09-26T23:29:00.080Z,30.87
2022-09-26T23:31:29.008Z,39.60
2022-09-26T23:33:57.682Z,50.83
2022-09-26T23:36:25.712Z,50.27
2022-09-26T23:38:53.959Z,47.13
2022-09-26T23:41:21.216Z,44.80
2022-09-26T23:43:48.603Z,68.97
2022-09-26T23:46:16.726Z,74.60
2022-09-26T23:48:45.146Z,73.90
2022-09-26T23:51:12.624Z,65.00
2022-09-26T23:53:39.920Z,35.33
2022-09-26T23:56:09.863Z,31.90
2022-09-26T23:58:37.629Z,36.67
